createdAt,value
2017-09-27T00:00:36.582Z,1009.39
2017-09-27T00:01:36.495Z,1009.39
2017-09-27T00:02:36.422Z,1009.38
2017-09-27T00:03:36.331Z,1009.37
2017-09-27T00:04:36.252Z,1009.38
2017-09-27T00:05:36.170Z,1009.39
2017-09-27T00:06:36.095Z,1009.42
2017-09-27T00:07:36.017Z,1009.41
2017-09-27T00:08:35.933Z,1009.45
2017-09-27T00:09:35.857Z,1009.46
2017-09-27T00:10:35.767Z,1009.42
2017-09-27T00:11:35.696Z,1009.43
2017-09-27T00:12:35.605Z,1009.41
2017-09-27T00:13:35.532Z,1009.43
2017-09-27T00:14:35.447Z,1009.39
2017-09-27T00:15:35.365Z,1009.39
2017-09-27T00:16:35.290Z,1009.39
2017-09-27T00:17:35.238Z,1009.36
2017-09-27T00:18:35.146Z,1009.35
2017-09-27T00:19:35.040Z,1009.34
2017-09-27T00:20:34.969Z,1009.39
2017-09-27T00:21:34.889Z,1009.41
2017-09-27T00:22:34.803Z,1009.38
2017-09-27T00:23:34.728Z,1009.44
2017-09-27T00:24:34.647Z,1009.39
2017-09-27T00:25:34.562Z,1009.45
2017-09-27T00:26:34.488Z,1009.42
2017-09-27T00:27:34.399Z,1009.42
2017-09-27T00:28:34.321Z,1009.44
2017-09-27T00:29:34.236Z,1009.45
2017-09-27T00:30:34.161Z,1009.45
2017-09-27T00:31:34.093Z,1009.45
2017-09-27T00:32:33.996Z,1009.42
2017-09-27T00:33:33.918Z,1009.45
2017-09-27T00:34:33.848Z,1009.43
2017-09-27T00:35:33.754Z,1009.43
2017-09-27T00:36:33.675Z,1009.43
2017-09-27T00:37:33.595Z,1009.41
2017-09-27T00:38:33.525Z,1009.44
2017-09-27T00:39:33.430Z,1009.46
2017-09-27T00:40:33.356Z,1009.42
2017-09-27T00:41:33.281Z,1009.42
2017-09-27T00:42:33.186Z,1009.45
2017-09-27T00:43:33.108Z,1009.42
2017-09-27T00:44:33.029Z,1009.40
2017-09-27T00:45:32.964Z,1009.41
2017-09-27T00:46:32.870Z,1009.41
2017-09-27T00:47:32.786Z,1009.41
2017-09-27T00:48:32.709Z,1009.42
2017-09-27T00:49:32.624Z,1009.40
2017-09-27T00:50:32.542Z,1009.34
2017-09-27T00:51:32.477Z,1009.35
2017-09-27T00:52:32.404Z,1009.34
2017-09-27T00:53:32.303Z,1009.34
2017-09-27T00:54:32.216Z,1009.34
2017-09-27T00:55:32.147Z,1009.32
2017-09-27T00:56:32.060Z,1009.35
2017-09-27T00:57:31.976Z,1009.32
2017-09-27T00:58:31.903Z,1009.28
2017-09-27T00:59:31.822Z,1009.30
2017-09-27T01:00:31.740Z,1009.25
2017-09-27T01:01:31.658Z,1009.21
2017-09-27T01:02:31.577Z,1009.25
2017-09-27T01:03:31.486Z,1009.23
2017-09-27T01:04:31.409Z,1009.21
2017-09-27T01:05:31.327Z,1009.21
2017-09-27T01:06:31.244Z,1009.24
2017-09-27T01:07:31.168Z,1009.16
2017-09-27T01:08:31.094Z,1009.21
2017-09-27T01:09:31.010Z,1009.21
2017-09-27T01:10:30.933Z,1009.20
2017-09-27T01:11:30.841Z,1009.18
2017-09-27T01:12:30.769Z,1009.21
2017-09-27T01:13:30.692Z,1009.19
2017-09-27T01:14:30.604Z,1009.23
2017-09-27T01:15:30.524Z,1009.19
2017-09-27T01:16:30.437Z,1009.23
2017-09-27T01:17:30.360Z,1009.25
2017-09-27T01:18:30.307Z,1009.22
2017-09-27T01:19:30.224Z,1009.23
2017-09-27T01:20:30.123Z,1009.27
2017-09-27T01:21:30.037Z,1009.28
2017-09-27T01:22:29.959Z,1009.31
2017-09-27T01:23:29.872Z,1009.32
2017-09-27T01:24:29.792Z,1009.31
2017-09-27T01:25:29.712Z,1009.32
2017-09-27T01:26:29.630Z,1009.29
2017-09-27T01:27:29.547Z,1009.27
2017-09-27T01:28:29.472Z,1009.25
2017-09-27T01:29:29.387Z,1009.29
2017-09-27T01:30:29.303Z,1009.28
2017-09-27T01:31:29.225Z,1009.28
2017-09-27T01:32:29.142Z,1009.24
2017-09-27T01:33:29.090Z,1009.26
2017-09-27T01:34:28.981Z,1009.27
2017-09-27T01:35:28.899Z,1009.28
2017-09-27T01:36:28.818Z,1009.27
2017-09-27T01:37:28.740Z,1009.28
2017-09-27T01:38:28.655Z,1009.24
2017-09-27T01:39:28.578Z,1009.26
2017-09-27T01:40:28.491Z,1009.26
2017-09-27T01:41:28.415Z,1009.27
2017-09-27T01:42:28.328Z,1009.27
2017-09-27T01:43:28.257Z,1009.26
2017-09-27T01:44:28.174Z,1009.28
2017-09-27T01:45:28.097Z,1009.28
2017-09-27T01:46:28.006Z,1009.27
2017-09-27T01:47:27.926Z,1009.26
2017-09-27T01:48:27.847Z,1009.21
2017-09-27T01:49:27.765Z,1009.26
2017-09-27T01:50:27.685Z,1009.26
2017-09-27T01:51:27.608Z,1009.23
2017-09-27T01:52:27.524Z,1009.24
2017-09-27T01:53:27.459Z,1009.22
2017-09-27T01:54:27.358Z,1009.29
2017-09-27T01:55:27.271Z,1009.23
2017-09-27T01:56:27.198Z,1009.25
2017-09-27T01:57:27.114Z,1009.29
2017-09-27T01:58:27.029Z,1009.29
2017-09-27T01:59:26.950Z,1009.30
2017-09-27T02:00:26.871Z,1009.35
2017-09-27T02:01:26.790Z,1009.35
2017-09-27T02:02:26.707Z,1009.33
2017-09-27T02:03:26.627Z,1009.33
2017-09-27T02:04:26.554Z,1009.35
2017-09-27T02:05:26.460Z,1009.32
2017-09-27T02:06:26.386Z,1009.36
2017-09-27T02:07:26.311Z,1009.38
2017-09-27T02:08:26.223Z,1009.37
2017-09-27T02:09:26.143Z,1009.38
2017-09-27T02:10:26.058Z,1009.37
2017-09-27T02:11:25.995Z,1009.40
2017-09-27T02:12:25.904Z,1009.40
2017-09-27T02:13:25.821Z,1009.40
2017-09-27T02:14:25.730Z,1009.41
2017-09-27T02:15:25.650Z,1009.40
2017-09-27T02:16:25.567Z,1009.44
2017-09-27T02:17:25.513Z,1009.44
2017-09-27T02:18:25.412Z,1009.44
2017-09-27T02:19:25.328Z,1009.44
2017-09-27T02:20:25.249Z,1009.44
2017-09-27T02:21:25.165Z,1009.45
2017-09-27T02:22:25.084Z,1009.45
2017-09-27T02:23:25.007Z,1009.41
2017-09-27T02:24:24.921Z,1009.43
2017-09-27T02:25:24.841Z,1009.42
2017-09-27T02:26:24.758Z,1009.46
2017-09-27T02:27:24.676Z,1009.44
2017-09-27T02:28:24.600Z,1009.45
2017-09-27T02:29:24.514Z,1009.46
2017-09-27T02:30:24.438Z,1009.44
2017-09-27T02:31:24.351Z,1009.45
2017-09-27T02:32:24.278Z,1009.46
2017-09-27T02:33:24.193Z,1009.46
2017-09-27T02:34:24.106Z,1009.49
2017-09-27T02:35:24.039Z,1009.49
2017-09-27T02:36:23.948Z,1009.51
2017-09-27T02:37:23.868Z,1009.48
2017-09-27T02:38:23.786Z,1009.51
2017-09-27T02:39:23.701Z,1009.48
2017-09-27T02:40:23.627Z,1009.53
2017-09-27T02:41:23.542Z,1009.49
2017-09-27T02:42:23.482Z,1009.51
2017-09-27T02:43:23.379Z,1009.48
2017-09-27T02:44:23.300Z,1009.47
2017-09-27T02:45:23.216Z,1009.48
2017-09-27T02:46:23.135Z,1009.48
2017-09-27T02:47:23.074Z,1009.50
2017-09-27T02:48:22.971Z,1009.45
2017-09-27T02:49:22.892Z,1009.46
2017-09-27T02:50:22.817Z,1009.48
2017-09-27T02:51:22.737Z,1009.47
2017-09-27T02:52:22.680Z,1009.46
2017-09-27T02:53:22.593Z,1009.45
2017-09-27T02:54:22.492Z,1009.45
2017-09-27T02:55:22.422Z,1009.44
2017-09-27T02:56:22.339Z,1009.46
2017-09-27T02:57:22.241Z,1009.48
2017-09-27T02:58:22.165Z,1009.46
2017-09-27T02:59:22.083Z,1009.44
2017-09-27T03:00:22.023Z,1009.44
2017-09-27T03:01:21.914Z,1009.44
2017-09-27T03:02:21.836Z,1009.42
2017-09-27T03:03:21.763Z,1009.45
2017-09-27T03:04:22.526Z,1009.47
2017-09-27T03:05:21.591Z,1009.45
2017-09-27T03:06:21.511Z,1009.49
2017-09-27T03:07:21.441Z,1009.38
2017-09-27T03:08:21.349Z,1009.42
2017-09-27T03:09:21.266Z,1009.43
2017-09-27T03:10:21.192Z,1009.43
2017-09-27T03:11:21.106Z,1009.44
2017-09-27T03:12:21.025Z,1009.43
2017-09-27T03:13:20.967Z,1009.43
2017-09-27T03:14:20.874Z,1009.44
2017-09-27T03:15:20.779Z,1009.41
2017-09-27T03:16:20.709Z,1009.44
2017-09-27T03:17:20.631Z,1009.45
2017-09-27T03:18:20.535Z,1009.50
2017-09-27T03:19:20.454Z,1009.47
2017-09-27T03:20:20.376Z,1009.45
2017-09-27T03:21:20.295Z,1009.49
2017-09-27T03:22:20.213Z,1009.43
2017-09-27T03:23:20.133Z,1009.45
2017-09-27T03:24:20.050Z,1009.47
2017-09-27T03:25:19.966Z,1009.45
2017-09-27T03:26:19.884Z,1009.47
2017-09-27T03:27:19.812Z,1009.43
2017-09-27T03:28:19.955Z,1009.47
2017-09-27T03:29:19.655Z,1009.45
2017-09-27T03:30:19.586Z,1009.42
2017-09-27T03:31:19.479Z,1009.42
2017-09-27T03:32:19.399Z,1009.45
2017-09-27T03:33:19.316Z,1009.46
2017-09-27T03:34:19.234Z,1009.47
2017-09-27T03:35:19.157Z,1009.48
2017-09-27T03:36:19.086Z,1009.47
2017-09-27T03:37:18.994Z,1009.45
2017-09-27T03:38:18.913Z,1009.47
2017-09-27T03:39:18.834Z,1009.50
2017-09-27T03:40:18.820Z,1009.45
2017-09-27T03:41:18.678Z,1009.47
2017-09-27T03:42:18.597Z,1009.50
2017-09-27T03:43:18.509Z,1009.51
2017-09-27T03:44:18.424Z,1009.49
2017-09-27T03:45:18.358Z,1009.47
2017-09-27T03:46:18.260Z,1009.51
2017-09-27T03:47:18.179Z,1009.45
2017-09-27T03:48:18.104Z,1009.46
2017-09-27T03:49:18.061Z,1009.48
2017-09-27T03:50:17.937Z,1009.47
2017-09-27T03:51:17.855Z,1009.46
2017-09-27T03:52:17.778Z,1009.47
2017-09-27T03:53:17.695Z,1009.49
2017-09-27T03:54:17.612Z,1009.50
2017-09-27T03:55:17.541Z,1009.49
2017-09-27T03:56:17.459Z,1009.46
2017-09-27T03:57:17.370Z,1009.47
2017-09-27T03:58:17.298Z,1009.46
2017-09-27T03:59:17.205Z,1009.43
2017-09-27T04:00:17.125Z,1009.50
2017-09-27T04:01:17.043Z,1009.49
2017-09-27T04:02:16.963Z,1009.50
2017-09-27T04:03:16.878Z,1009.50
2017-09-27T04:04:16.801Z,1009.52
2017-09-27T04:05:16.724Z,1009.54
2017-09-27T04:06:16.639Z,1009.58
2017-09-27T04:07:16.562Z,1009.54
2017-09-27T04:08:16.476Z,1009.56
2017-09-27T04:09:16.401Z,1009.55
2017-09-27T04:10:16.313Z,1009.53
2017-09-27T04:11:16.242Z,1009.56
2017-09-27T04:12:16.146Z,1009.56
2017-09-27T04:13:16.071Z,1009.57
2017-09-27T04:14:15.991Z,1009.56
2017-09-27T04:15:15.909Z,1009.60
2017-09-27T04:16:15.824Z,1009.59
2017-09-27T04:17:15.745Z,1009.56
2017-09-27T04:18:15.666Z,1009.63
2017-09-27T04:19:15.597Z,1009.62
2017-09-27T04:20:15.503Z,1009.60
2017-09-27T04:21:15.422Z,1009.61
2017-09-27T04:22:15.340Z,1009.61
2017-09-27T04:23:15.257Z,1009.60
2017-09-27T04:24:15.180Z,1009.62
2017-09-27T04:25:15.106Z,1009.66
2017-09-27T04:26:15.018Z,1009.62
2017-09-27T04:27:14.937Z,1009.68
2017-09-27T04:28:14.857Z,1009.66
2017-09-27T04:29:14.777Z,1009.72
2017-09-27T04:30:14.691Z,1009.71
2017-09-27T04:31:14.614Z,1009.66
2017-09-27T04:32:14.532Z,1009.70
2017-09-27T04:33:14.447Z,1009.76
2017-09-27T04:34:14.370Z,1009.73
2017-09-27T04:35:14.282Z,1009.72
2017-09-27T04:36:14.211Z,1009.71
2017-09-27T04:37:14.121Z,1009.74
2017-09-27T04:38:14.040Z,1009.73
2017-09-27T04:39:13.966Z,1009.76
2017-09-27T04:40:13.883Z,1009.75
2017-09-27T04:41:13.796Z,1009.74
2017-09-27T04:42:13.712Z,1009.76
2017-09-27T04:43:13.634Z,1009.80
2017-09-27T04:44:13.551Z,1009.78
2017-09-27T04:45:13.476Z,1009.79
2017-09-27T04:46:13.395Z,1009.83
2017-09-27T04:47:13.310Z,1009.85
2017-09-27T04:48:13.226Z,1009.84
2017-09-27T04:49:13.150Z,1009.88
2017-09-27T04:50:13.064Z,1009.87
2017-09-27T04:51:12.979Z,1009.95
2017-09-27T04:52:12.902Z,1009.91
2017-09-27T04:53:12.833Z,1009.88
2017-09-27T04:54:12.746Z,1009.88
2017-09-27T04:55:12.662Z,1009.86
2017-09-27T04:56:12.590Z,1009.90
2017-09-27T04:57:12.498Z,1009.87
2017-09-27T04:58:12.417Z,1009.93
2017-09-27T04:59:12.335Z,1009.94
2017-09-27T05:00:12.253Z,1009.94
2017-09-27T05:01:12.171Z,1009.96
2017-09-27T05:02:12.096Z,1009.92
2017-09-27T05:03:12.007Z,1009.95
2017-09-27T05:04:11.950Z,1009.93
2017-09-27T05:05:11.848Z,1009.95
2017-09-27T05:06:11.772Z,1009.93
2017-09-27T05:07:11.685Z,1009.95
2017-09-27T05:08:11.609Z,1009.98
2017-09-27T05:09:11.524Z,1010.00
2017-09-27T05:10:11.444Z,1010.01
2017-09-27T05:11:11.360Z,1009.99
2017-09-27T05:12:11.294Z,1010.02
2017-09-27T05:13:11.198Z,1010.02
2017-09-27T05:14:11.120Z,1010.04
2017-09-27T05:15:11.046Z,1010.03
2017-09-27T05:16:10.959Z,1010.06
2017-09-27T05:17:10.874Z,1010.05
2017-09-27T05:18:10.787Z,1010.05
2017-09-27T05:19:10.707Z,1010.08
2017-09-27T05:20:10.627Z,1010.10
2017-09-27T05:21:10.547Z,1010.11
2017-09-27T05:22:10.465Z,1010.11
2017-09-27T05:23:10.383Z,1010.13
2017-09-27T05:24:10.307Z,1010.14
2017-09-27T05:25:10.220Z,1010.16
2017-09-27T05:26:10.138Z,1010.13
2017-09-27T05:27:10.067Z,1010.13
2017-09-27T05:28:09.979Z,1010.18
2017-09-27T05:29:09.894Z,1010.17
2017-09-27T05:30:09.807Z,1010.16
2017-09-27T05:31:09.730Z,1010.18
2017-09-27T05:32:09.649Z,1010.18
2017-09-27T05:33:09.569Z,1010.19
2017-09-27T05:34:09.493Z,1010.18
2017-09-27T05:35:09.419Z,1010.18
2017-09-27T05:36:09.328Z,1010.22
2017-09-27T05:37:09.247Z,1010.24
2017-09-27T05:38:09.167Z,1010.17
2017-09-27T05:39:09.083Z,1010.19
2017-09-27T05:40:09.004Z,1010.22
2017-09-27T05:41:08.928Z,1010.18
2017-09-27T05:42:08.837Z,1010.17
2017-09-27T05:43:08.756Z,1010.16
2017-09-27T05:44:08.680Z,1010.16
2017-09-27T05:45:08.623Z,1010.17
2017-09-27T05:46:08.515Z,1010.14
2017-09-27T05:47:08.435Z,1010.13
2017-09-27T05:48:08.347Z,1010.15
2017-09-27T05:49:08.271Z,1010.15
2017-09-27T05:50:08.189Z,1010.12
2017-09-27T05:51:08.108Z,1010.13
2017-09-27T05:52:08.026Z,1010.12
2017-09-27T05:53:07.945Z,1010.15
2017-09-27T05:54:07.870Z,1010.16
2017-09-27T05:55:07.781Z,1010.21
2017-09-27T05:56:07.701Z,1010.22
2017-09-27T05:57:07.616Z,1010.24
2017-09-27T05:58:07.537Z,1010.25
2017-09-27T05:59:07.452Z,1010.23
2017-09-27T06:00:07.377Z,1010.23
2017-09-27T06:01:07.294Z,1010.23
2017-09-27T06:02:07.237Z,1010.21
2017-09-27T06:03:07.141Z,1010.26
2017-09-27T06:04:07.051Z,1010.24
2017-09-27T06:05:06.978Z,1010.27
2017-09-27T06:06:06.892Z,1010.29
2017-09-27T06:07:06.802Z,1010.28
2017-09-27T06:08:06.720Z,1010.35
2017-09-27T06:09:06.640Z,1010.34
2017-09-27T06:10:06.561Z,1010.31
2017-09-27T06:11:06.486Z,1010.32
2017-09-27T06:12:06.395Z,1010.33
2017-09-27T06:13:06.315Z,1010.32
2017-09-27T06:14:06.240Z,1010.31
2017-09-27T06:15:06.166Z,1010.36
2017-09-27T06:16:06.073Z,1010.31
2017-09-27T06:17:05.991Z,1010.34
2017-09-27T06:18:05.921Z,1010.37
2017-09-27T06:19:05.840Z,1010.33
2017-09-27T06:20:05.746Z,1010.37
2017-09-27T06:21:05.664Z,1010.38
2017-09-27T06:22:05.605Z,1010.38
2017-09-27T06:23:05.510Z,1010.42
2017-09-27T06:24:05.441Z,1010.44
2017-09-27T06:25:05.352Z,1010.40
2017-09-27T06:26:05.275Z,1010.44
2017-09-27T06:27:05.195Z,1010.45
2017-09-27T06:28:05.102Z,1010.43
2017-09-27T06:29:05.040Z,1010.42
2017-09-27T06:30:04.936Z,1010.45
2017-09-27T06:31:04.851Z,1010.45
2017-09-27T06:32:04.779Z,1010.49
2017-09-27T06:33:04.699Z,1010.47
2017-09-27T06:34:04.634Z,1010.47
2017-09-27T06:35:04.539Z,1010.51
2017-09-27T06:36:04.453Z,1010.54
2017-09-27T06:37:04.376Z,1010.53
2017-09-27T06:38:04.294Z,1010.54
2017-09-27T06:39:04.210Z,1010.56
2017-09-27T06:40:04.130Z,1010.52
2017-09-27T06:41:04.049Z,1010.51
2017-09-27T06:42:03.970Z,1010.48
2017-09-27T06:43:03.900Z,1010.48
2017-09-27T06:44:03.806Z,1010.51
2017-09-27T06:45:03.743Z,1010.50
2017-09-27T06:46:03.645Z,1010.51
2017-09-27T06:47:03.565Z,1010.51
2017-09-27T06:48:03.501Z,1010.54
2017-09-27T06:49:03.405Z,1010.56
2017-09-27T06:50:03.325Z,1010.56
2017-09-27T06:51:03.246Z,1010.60
2017-09-27T06:52:03.164Z,1010.55
2017-09-27T06:53:03.085Z,1010.58
2017-09-27T06:54:03.002Z,1010.59
2017-09-27T06:55:02.927Z,1010.62
2017-09-27T06:56:02.845Z,1010.65
2017-09-27T06:57:02.763Z,1010.66
2017-09-27T06:58:02.699Z,1010.65
2017-09-27T06:59:02.602Z,1010.65
2017-09-27T07:00:02.541Z,1010.67
2017-09-27T07:01:02.442Z,1010.70
2017-09-27T07:02:02.361Z,1010.68
2017-09-27T07:03:02.291Z,1010.69
2017-09-27T07:04:02.207Z,1010.68
2017-09-27T07:05:02.129Z,1010.72
2017-09-27T07:06:02.051Z,1010.75
2017-09-27T07:07:01.967Z,1010.77
2017-09-27T07:08:01.887Z,1010.75
2017-09-27T07:09:01.808Z,1010.77
2017-09-27T07:10:01.748Z,1010.79
2017-09-27T07:11:01.646Z,1010.77
2017-09-27T07:12:01.564Z,1010.77
2017-09-27T07:13:01.482Z,1010.82
2017-09-27T07:14:01.412Z,1010.83
2017-09-27T07:15:01.325Z,1010.81
2017-09-27T07:16:01.244Z,1010.81
2017-09-27T07:17:01.172Z,1010.81
2017-09-27T07:18:01.086Z,1010.82
2017-09-27T07:19:01.060Z,1010.84
2017-09-27T07:20:00.935Z,1010.83
2017-09-27T07:21:00.849Z,1010.94
2017-09-27T07:22:00.768Z,1010.82
2017-09-27T07:23:00.689Z,1010.84
2017-09-27T07:24:00.612Z,1010.88
2017-09-27T07:25:00.530Z,1010.85
2017-09-27T07:26:00.453Z,1010.92
2017-09-27T07:27:00.377Z,1010.92
2017-09-27T07:28:00.294Z,1010.93
2017-09-27T07:29:00.210Z,1010.89
2017-09-27T07:30:00.142Z,1010.90
2017-09-27T07:31:00.060Z,1010.97
2017-09-27T07:31:59.975Z,1010.94
2017-09-27T07:32:59.902Z,1010.95
2017-09-27T07:33:59.814Z,1010.94
2017-09-27T07:34:59.733Z,1010.98
2017-09-27T07:35:59.663Z,1011.00
2017-09-27T07:36:59.575Z,1011.01
2017-09-27T07:37:59.500Z,1011.00
2017-09-27T07:38:59.417Z,1011.10
2017-09-27T07:39:59.339Z,1011.09
2017-09-27T07:40:59.260Z,1011.13
2017-09-27T07:41:59.181Z,1011.11
2017-09-27T07:42:59.121Z,1011.16
2017-09-27T07:43:59.022Z,1011.16
2017-09-27T07:44:58.945Z,1011.14
2017-09-27T07:45:58.871Z,1011.16
2017-09-27T07:46:58.790Z,1011.22
2017-09-27T07:47:58.709Z,1011.18
2017-09-27T07:48:58.637Z,1011.21
2017-09-27T07:49:58.559Z,1011.24
2017-09-27T07:50:58.472Z,1011.27
2017-09-27T07:51:58.400Z,1011.31
2017-09-27T07:52:58.325Z,1011.29
2017-09-27T07:53:58.246Z,1011.29
2017-09-27T07:54:58.162Z,1011.32
2017-09-27T07:55:58.092Z,1011.27
2017-09-27T07:56:58.004Z,1011.32
2017-09-27T07:57:57.931Z,1011.36
2017-09-27T07:58:57.870Z,1011.32
2017-09-27T07:59:57.787Z,1011.36
2017-09-27T08:00:57.698Z,1011.35
2017-09-27T08:01:57.625Z,1011.44
2017-09-27T08:02:57.564Z,1011.46
2017-09-27T08:03:57.468Z,1011.49
2017-09-27T08:04:57.392Z,1011.57
2017-09-27T08:05:57.311Z,1011.56
2017-09-27T08:06:57.238Z,1011.56
2017-09-27T08:07:57.167Z,1011.57
2017-09-27T08:08:57.090Z,1011.60
2017-09-27T08:09:57.010Z,1011.61
2017-09-27T08:10:56.943Z,1011.63
2017-09-27T08:11:56.867Z,1011.67
2017-09-27T08:12:56.786Z,1011.68
2017-09-27T08:13:56.721Z,1011.69
2017-09-27T08:14:56.642Z,1011.70
2017-09-27T08:15:56.561Z,1011.71
2017-09-27T08:16:56.489Z,1011.68
2017-09-27T08:17:56.421Z,1011.67
2017-09-27T08:18:56.340Z,1011.70
2017-09-27T08:19:56.267Z,1011.61
2017-09-27T08:20:56.195Z,1011.62
2017-09-27T08:21:56.119Z,1011.61
2017-09-27T08:22:56.059Z,1011.57
2017-09-27T08:23:55.968Z,1011.56
2017-09-27T08:24:55.895Z,1011.50
2017-09-27T08:25:55.818Z,1011.50
2017-09-27T08:26:55.750Z,1011.49
2017-09-27T08:27:55.672Z,1011.50
2017-09-27T08:28:55.602Z,1011.51
2017-09-27T08:29:55.534Z,1011.52
2017-09-27T08:30:55.448Z,1011.53
2017-09-27T08:31:55.381Z,1011.50
2017-09-27T08:32:55.310Z,1011.55
2017-09-27T08:33:55.237Z,1011.54
2017-09-27T08:34:55.162Z,1011.55
2017-09-27T08:35:55.089Z,1011.54
2017-09-27T08:36:55.015Z,1011.55
2017-09-27T08:37:54.937Z,1011.55
2017-09-27T08:38:54.870Z,1011.55
2017-09-27T08:39:54.794Z,1011.56
2017-09-27T08:40:54.719Z,1011.55
2017-09-27T08:41:54.646Z,1011.56
2017-09-27T08:42:54.574Z,1011.55
2017-09-27T08:43:54.503Z,1011.52
2017-09-27T08:44:54.430Z,1011.54
2017-09-27T08:45:54.358Z,1011.54
2017-09-27T08:46:54.283Z,1011.51
2017-09-27T08:47:54.211Z,1011.49
2017-09-27T08:48:54.136Z,1011.53
2017-09-27T08:49:54.065Z,1011.53
2017-09-27T08:50:53.991Z,1011.49
2017-09-27T08:51:53.924Z,1011.51
2017-09-27T08:52:53.846Z,1011.48
2017-09-27T08:53:53.778Z,1011.51
2017-09-27T08:54:53.705Z,1011.52
2017-09-27T08:55:53.629Z,1011.51
2017-09-27T08:56:53.556Z,1011.51
2017-09-27T08:57:53.486Z,1011.53
2017-09-27T08:58:53.420Z,1011.51
2017-09-27T08:59:53.341Z,1011.55
2017-09-27T09:00:53.276Z,1011.49
2017-09-27T09:01:53.200Z,1011.56
2017-09-27T09:02:53.128Z,1011.57
2017-09-27T09:03:53.060Z,1011.55
2017-09-27T09:04:52.981Z,1011.54
2017-09-27T09:05:52.920Z,1011.52
2017-09-27T09:06:52.849Z,1011.56
2017-09-27T09:07:52.770Z,1011.52
2017-09-27T09:08:52.700Z,1011.54
2017-09-27T09:09:52.624Z,1011.58
2017-09-27T09:10:52.551Z,1011.54
2017-09-27T09:11:52.493Z,1011.52
2017-09-27T09:12:52.417Z,1011.52
2017-09-27T09:13:52.340Z,1011.50
2017-09-27T09:14:52.270Z,1011.49
2017-09-27T09:15:52.197Z,1011.47
2017-09-27T09:16:52.126Z,1011.46
2017-09-27T09:17:52.060Z,1011.45
2017-09-27T09:18:51.988Z,1011.43
2017-09-27T09:19:51.913Z,1011.40
2017-09-27T09:20:51.844Z,1011.41
2017-09-27T09:21:51.773Z,1011.41
2017-09-27T09:22:51.701Z,1011.42
2017-09-27T09:23:51.634Z,1011.43
2017-09-27T09:24:51.561Z,1011.44
2017-09-27T09:25:51.489Z,1011.42
2017-09-27T09:26:51.417Z,1011.41
2017-09-27T09:27:51.346Z,1011.45
2017-09-27T09:28:51.281Z,1011.44
2017-09-27T09:29:51.206Z,1011.44
2017-09-27T09:30:51.131Z,1011.44
2017-09-27T09:31:51.073Z,1011.43
2017-09-27T09:32:50.998Z,1011.41
2017-09-27T09:33:50.932Z,1011.41
2017-09-27T09:34:50.884Z,1011.39
2017-09-27T09:35:50.794Z,1011.39
2017-09-27T09:36:50.720Z,1011.39
2017-09-27T09:37:50.660Z,1011.41
2017-09-27T09:38:50.578Z,1011.41
2017-09-27T09:39:50.515Z,1011.42
2017-09-27T09:40:50.449Z,1011.38
2017-09-27T09:41:50.394Z,1011.39
2017-09-27T09:42:50.307Z,1011.36
2017-09-27T09:43:50.243Z,1011.35
2017-09-27T09:44:50.166Z,1011.38
2017-09-27T09:45:50.105Z,1011.34
2017-09-27T09:46:50.036Z,1011.35
2017-09-27T09:47:49.958Z,1011.32
2017-09-27T09:48:49.889Z,1011.31
2017-09-27T09:49:49.824Z,1011.27
2017-09-27T09:50:49.748Z,1011.30
2017-09-27T09:51:49.681Z,1011.26
2017-09-27T09:52:49.612Z,1011.28
2017-09-27T09:53:49.549Z,1011.26
2017-09-27T09:54:49.497Z,1011.27
2017-09-27T09:55:49.410Z,1011.22
2017-09-27T09:56:49.355Z,1011.20
2017-09-27T09:57:49.278Z,1011.19
2017-09-27T09:58:49.214Z,1011.13
2017-09-27T09:59:49.141Z,1011.16
2017-09-27T10:00:49.077Z,1011.17
2017-09-27T10:01:49.006Z,1011.16
2017-09-27T10:02:48.953Z,1011.12
2017-09-27T10:03:48.871Z,1011.09
2017-09-27T10:04:48.809Z,1011.06
2017-09-27T10:05:48.739Z,1011.02
2017-09-27T10:06:48.670Z,1011.00
2017-09-27T10:07:48.599Z,1010.96
2017-09-27T10:08:48.540Z,1010.93
2017-09-27T10:09:48.463Z,1010.97
2017-09-27T10:10:48.395Z,1010.89
2017-09-27T10:11:48.342Z,1010.94
2017-09-27T10:12:48.264Z,1010.93
2017-09-27T10:13:48.194Z,1010.91
2017-09-27T10:14:48.126Z,1010.86
2017-09-27T10:15:48.108Z,1010.84
2017-09-27T10:16:48.006Z,1010.82
2017-09-27T10:17:47.926Z,1010.78
2017-09-27T10:18:47.871Z,1010.77
2017-09-27T10:19:47.794Z,1010.74
2017-09-27T10:20:47.734Z,1010.71
2017-09-27T10:21:47.667Z,1010.67
2017-09-27T10:22:47.600Z,1010.57
2017-09-27T10:23:47.530Z,1010.60
2017-09-27T10:24:47.467Z,1010.60
2017-09-27T10:25:47.397Z,1010.62
2017-09-27T10:26:47.332Z,1010.61
2017-09-27T10:27:47.259Z,1010.56
2017-09-27T10:28:47.204Z,1010.55
2017-09-27T10:29:47.132Z,1010.54
2017-09-27T10:30:47.065Z,1010.56
2017-09-27T10:31:47.003Z,1010.54
2017-09-27T10:32:46.946Z,1010.55
2017-09-27T10:33:46.908Z,1010.50
2017-09-27T10:34:46.797Z,1010.56
2017-09-27T10:35:46.735Z,1010.58
2017-09-27T10:36:46.672Z,1010.61
2017-09-27T10:37:46.596Z,1010.59
2017-09-27T10:38:46.537Z,1010.59
2017-09-27T10:39:46.471Z,1010.65
2017-09-27T10:40:46.411Z,1010.62
2017-09-27T10:41:46.337Z,1010.65
2017-09-27T10:42:46.278Z,1010.68
2017-09-27T10:43:46.208Z,1010.66
2017-09-27T10:44:46.141Z,1010.66
2017-09-27T10:45:46.077Z,1010.66
2017-09-27T10:46:46.011Z,1010.76
2017-09-27T10:47:45.944Z,1010.76
2017-09-27T10:48:45.877Z,1010.82
2017-09-27T10:49:45.808Z,1010.86
2017-09-27T10:50:45.746Z,1010.90
2017-09-27T10:51:45.686Z,1010.94
2017-09-27T10:52:45.613Z,1010.98
2017-09-27T10:53:45.537Z,1011.04
2017-09-27T10:54:45.476Z,1011.09
2017-09-27T10:55:45.427Z,1011.15
2017-09-27T10:56:45.340Z,1011.11
2017-09-27T10:57:45.275Z,1011.16
2017-09-27T10:58:45.207Z,1011.13
2017-09-27T10:59:45.141Z,1011.12
2017-09-27T11:00:45.081Z,1011.14
2017-09-27T11:01:45.009Z,1011.26
2017-09-27T11:02:44.953Z,1011.35
2017-09-27T11:03:44.877Z,1011.34
2017-09-27T11:04:44.814Z,1011.39
2017-09-27T11:05:44.747Z,1011.46
2017-09-27T11:06:44.679Z,1011.46
2017-09-27T11:07:44.613Z,1011.48
2017-09-27T11:08:44.551Z,1011.47
2017-09-27T11:09:44.475Z,1011.49
2017-09-27T11:10:44.414Z,1011.52
2017-09-27T11:11:44.342Z,1011.25
2017-09-27T11:12:44.276Z,1011.05
2017-09-27T11:13:44.214Z,1011.02
2017-09-27T11:14:44.144Z,1011.00
2017-09-27T11:15:44.078Z,1011.01
2017-09-27T11:16:44.014Z,1011.00
2017-09-27T11:17:43.945Z,1011.13
2017-09-27T11:18:43.878Z,1011.37
2017-09-27T11:19:43.803Z,1011.52
2017-09-27T11:20:43.742Z,1011.48
2017-09-27T11:21:43.674Z,1011.51
2017-09-27T11:22:43.611Z,1011.50
2017-09-27T11:23:43.539Z,1011.54
2017-09-27T11:24:43.475Z,1011.47
2017-09-27T11:25:43.422Z,1011.47
2017-09-27T11:26:43.348Z,1011.45
2017-09-27T11:27:43.293Z,1011.31
2017-09-27T11:28:43.214Z,1011.47
2017-09-27T11:29:43.149Z,1011.66
2017-09-27T11:30:43.090Z,1011.70
2017-09-27T11:31:43.016Z,1011.71
2017-09-27T11:32:42.955Z,1011.71
2017-09-27T11:33:42.894Z,1011.72
2017-09-27T11:34:42.831Z,1011.76
2017-09-27T11:35:42.760Z,1011.74
2017-09-27T11:36:42.688Z,1011.72
2017-09-27T11:37:42.625Z,1011.67
2017-09-27T11:38:42.559Z,1011.63
2017-09-27T11:39:42.495Z,1011.63
2017-09-27T11:40:42.424Z,1011.65
2017-09-27T11:41:42.353Z,1011.62
2017-09-27T11:42:42.289Z,1011.60
2017-09-27T11:43:42.218Z,1011.29
2017-09-27T11:44:42.151Z,1010.78
2017-09-27T11:45:42.086Z,1010.77
2017-09-27T11:46:42.018Z,1010.69
2017-09-27T11:47:41.943Z,1010.67
2017-09-27T11:48:41.874Z,1010.65
2017-09-27T11:49:41.804Z,1010.63
2017-09-27T11:50:41.739Z,1010.66
2017-09-27T11:51:41.671Z,1010.69
2017-09-27T11:52:41.596Z,1010.67
2017-09-27T11:53:41.527Z,1010.67
2017-09-27T11:54:41.458Z,1010.68
2017-09-27T11:55:41.389Z,1010.64
2017-09-27T11:56:41.313Z,1010.62
2017-09-27T11:57:41.248Z,1010.61
2017-09-27T11:58:41.194Z,1010.61
2017-09-27T11:59:41.138Z,1010.62
2017-09-27T12:00:41.051Z,1010.58
2017-09-27T12:01:40.969Z,1010.50
2017-09-27T12:02:40.903Z,1010.50
2017-09-27T12:03:40.843Z,1010.47
2017-09-27T12:04:40.752Z,1010.48